ΕΜΥ, Εθνική Μετεωρολογική Υπηρεσία - Δελτία Καιρού, Προγνώσεις

ΑΕΡΟΝΑΥΤΙΛΙΑ

GREEK AIRPORTS CODES

LGAV 160950Z 06010KT CAVOK 24/13 Q1017 RMK NOSIG=

EUROPEAN AIRPORTS CODES

LFPO 161000Z 20013KT 180V240 9999 -RA FEW020 BKN043 15/12Q1010 TEMPO BKN012=